Latest Coastal Weather Observations for Groote Eylandt Airport

IDD60701

Issued at 2:11 am CST Thursday 3 September 2026 (issued every 10 minutes, with the page automatically refreshed every 10 minutes)

About coastal observations | Map of coastal stations | Coastal observations for NT | Marine services | Other Formats
Station Details ID: 014518 Name: GROOTE EYLANDT AIRPORT Lat: -13.97 Lon: 136.46 Height: 13.7 m
Data from the previous 72 hours. | See also: Recent months at Groote Eylandt Airport
Date/Time
CST
Wind Sea
Height
m
Swell Vis
km
Cloud Weather Temp
°C
Press
MSL
hPa
Rain since
9am
mm
Dir  Spd
kts
Gust
kts
Height
m
Period
s
Dir
03/02:00am E 3 5 - - - - 10 Clear - 17.1 1016.6 0.0
03/01:30am CALM 0 0 - - - - 10 - - 17.3 1016.7 0.0
03/01:00am CALM 0 0 - - - - 10 - - 17.6 1016.9 0.0
03/12:30am CALM 0 0 - - - - 10 - - 18.0 1017.1 0.0
03/12:00am CALM 0 0 - - - - 10 - - 18.7 1017.1 0.0
 
Date/Time
CST
Wind Sea
Height
m
Swell Vis
km
Cloud Weather Temp
°C
Press
MSL
hPa
Rain since
9am
mm
Dir  Spd
kts
Gust
kts
Height
m
Period
s
Dir
02/11:30pm CALM 0 0 - - - - 10 - - 19.1 1017.3 0.0
02/11:00pm CALM 0 0 - - - - 10 - - 19.6 1017.3 0.0
02/10:30pm CALM 0 0 - - - - 10 - - 20.2 1017.4 0.0
02/10:00pm E 1 3 - - - - 10 - - 20.7 1017.5 0.0
02/09:30pm CALM 0 0 - - - - 10 - - 21.0 1017.6 0.0
02/09:00pm E 3 4 - - - - 10 - - 21.3 1017.4 0.0
02/08:30pm E 2 4 - - - - 10 - - 22.1 1017.4 0.0
02/08:00pm E 4 5 - - - - 10 - - 22.9 1017.1 0.0
02/07:30pm ESE 3 4 - - - - 10 - - 23.5 1016.9 0.0
02/07:00pm ESE 4 7 - - - - 10 - - 24.4 1016.7 0.0
02/06:30pm E 7 9 - - - - 10 - - 25.3 1016.3 0.0
02/06:00pm ESE 6 9 - - - - 10 - - 26.3 1016.2 0.0
02/05:30pm E 9 12 - - - - 10 Mostly clear - 27.4 1015.8 0.0
02/05:00pm E 9 12 - - - - 10 Mostly clear - 28.2 1015.6 0.0
02/04:30pm E 9 12 - - - - 10 Partly cloudy - 28.2 1015.5 0.0
02/04:00pm ENE 6 8 - - - - 10 Partly cloudy - 28.0 1015.4 0.0
02/03:30pm E 6 11 - - - - 10 Mostly clear - 28.5 1015.2 0.0
02/03:00pm SW 4 6 - - - - 10 Cloudy - 27.8 1015.4 0.0
02/02:30pm SSE 3 5 - - - - 10 Mostly clear - 28.1 1015.7 0.0
02/02:00pm E 8 12 - - - - 10 Partly cloudy - 28.7 1016.0 0.0
02/01:30pm E 9 15 - - - - 10 Mostly clear - 30.3 1016.3 0.0
02/01:00pm E 8 13 - - - - 10 Mostly clear - 28.5 1016.8 0.0
02/12:30pm ESE 9 12 - - - - 10 Mostly clear - 28.0 1017.3 0.0
02/12:00pm ESE 10 14 - - - - 10 Cloudy - 28.4 1017.7 0.0
02/11:30am NE 7 11 - - - - 10 Partly cloudy - 28.5 1018.1 0.0
02/11:00am ENE 9 13 - - - - 10 Mostly clear - 28.4 1018.6 0.0
02/10:30am NE 6 10 - - - - 10 Mostly clear - 28.6 1018.8 0.0
02/10:00am NE 8 15 - - - - 10 Mostly clear - 27.6 1019.1 0.0
02/09:30am ENE 5 8 - - - - 10 Mostly clear - 27.3 1019.2 0.0
02/09:00am NE 3 6 - - - - 10 - - 26.5 1019.1 0.0
02/08:30am CALM 0 0 - - - - 10 Mostly clear - 24.8 1018.9 0.0
02/08:00am CALM 0 2 - - - - 10 Mostly clear - 21.7 1018.7 0.0
02/07:30am SE 4 4 - - - - 10 Mostly clear - 19.3 1018.5 0.0
02/07:00am CALM 0 0 - - - - 10 Mostly clear - 16.6 1018.1 0.0
02/06:30am CALM 0 0 - - - - 10 - - 16.1 1017.7 0.0
02/06:00am CALM 0 0 - - - - 10 Mostly clear - 16.3 1017.4 0.0
02/05:30am CALM 0 0 - - - - 10 Mostly clear - 16.4 1017.0 0.0
02/05:00am CALM 0 0 - - - - 10 Mostly clear - 16.3 1016.8 0.0
02/04:30am CALM 0 0 - - - - 10 - - 16.3 1016.6 0.0
02/04:00am SE 3 4 - - - - 10 Partly cloudy - 16.4 1016.5 0.0
02/03:30am CALM 0 2 - - - - 10 Partly cloudy - 16.6 1016.5 0.0
02/03:00am CALM 0 0 - - - - 10 - - 16.6 1016.5 0.0
02/02:30am CALM 0 0 - - - - 10 - - 17.0 1016.7 0.0
02/02:00am CALM 0 0 - - - - 10 - - 17.3 1016.9 0.0
02/01:30am CALM 0 0 - - - - 10 - - 17.6 1017.0 0.0
02/01:00am SE 2 3 - - - - 10 - - 18.0 1017.1 0.0
02/12:30am CALM 0 0 - - - - 10 - - 18.3 1017.3 0.0
02/12:00am CALM 0 0 - - - - 10 - - 18.8 1017.7 0.0
 
Date/Time
CST
Wind Sea
Height
m
Swell Vis
km
Cloud Weather Temp
°C
Press
MSL
hPa
Rain since
9am
mm
Dir  Spd
kts
Gust
kts
Height
m
Period
s
Dir
01/11:30pm CALM 0 0 - - - - 10 - - 19.7 1017.9 0.0
01/11:00pm CALM 0 0 - - - - 10 - - 19.9 1017.9 0.0
01/10:30pm SE 2 3 - - - - 10 - - 20.5 1017.7 0.0
01/10:25pm SE 2 3 - - - - 10 - - 20.6 1017.7 0.0
01/10:05pm SE 3 5 - - - - 2 - - 21.1 1017.9 0.0
01/10:00pm SE 4 5 - - - - 10 - - 21.5 1017.9 0.0
01/09:30pm ESE 4 5 - - - - 10 - - 21.5 1018.0 0.0
01/09:28pm ESE 4 5 - - - - 10 - - 21.6 1018.0 0.0
01/09:10pm ESE 2 4 - - - - 5 - - 21.9 1018.1 0.0
01/09:00pm ESE 3 4 - - - - 10 - - 22.1 1018.0 0.0
01/08:30pm ESE 4 6 - - - - 10 - - 22.6 1017.8 0.0
01/08:00pm ESE 4 5 - - - - 10 - - 22.7 1017.5 0.0
01/07:30pm ESE 3 6 - - - - 10 - - 23.4 1017.1 0.0
01/07:00pm ESE 4 7 - - - - 10 Mostly clear - 24.3 1016.8 0.0
01/06:30pm ESE 6 9 - - - - 10 - - 25.0 1016.5 0.0
01/06:00pm ESE 7 11 - - - - 10 Mostly cloudy - 25.6 1016.4 0.0
01/05:30pm ESE 8 12 - - - - 10 Partly cloudy - 26.7 1016.2 0.0
01/05:00pm E 11 17 - - - - 10 Partly cloudy - 27.7 1016.1 0.0
01/04:30pm E 11 17 - - - - 10 Mostly clear - 27.4 1016.1 0.0
01/04:00pm E 9 14 - - - - 10 Mostly clear - 27.5 1015.9 0.0
01/03:30pm E 13 19 - - - - 10 Mostly clear - 27.9 1015.9 0.0
01/03:00pm NE 8 13 - - - - 10 Cloudy - 27.1 1016.1 0.0
01/02:30pm ENE 9 13 - - - - 10 Mostly clear - 26.5 1016.3 0.0
01/02:00pm E 10 16 - - - - 10 Mostly clear - 27.6 1016.4 0.0
01/01:30pm E 12 16 - - - - 10 Mostly clear - 27.2 1016.9 0.0
01/01:00pm ENE 11 18 - - - - 10 Partly cloudy - 27.3 1017.4 0.0
01/12:30pm ENE 15 23 - - - - 10 - - 27.2 1017.6 0.0
01/12:00pm ENE 17 23 - - - - 10 Partly cloudy - 27.8 1018.2 0.0
01/11:30am E 16 22 - - - - 10 Mostly clear - 28.3 1018.5 0.0
01/11:00am E 9 15 - - - - 10 Mostly clear - 29.8 1018.9 0.0
01/10:30am ESE 9 15 - - - - 10 Mostly clear - 28.2 1019.3 0.0
01/10:00am ESE 9 14 - - - - 10 Partly cloudy - 28.3 1019.5 0.0
01/09:30am ESE 8 14 - - - - 10 - - 28.0 1019.6 0.0
01/09:00am SE 4 8 - - - - 10 - - 26.8 1019.6 0.0
01/08:30am ESE 1 4 - - - - 10 - - 24.9 1019.5 0.0
01/08:00am CALM 0 3 - - - - 10 Mostly clear - 21.9 1019.3 0.0
01/07:30am ESE 3 4 - - - - 10 Partly cloudy - 18.8 1019.0 0.0
01/07:00am CALM 0 0 - - - - 10 Partly cloudy - 16.7 1018.7 0.0
01/06:30am CALM 0 0 - - - - 10 - - 16.5 1018.3 0.0
01/06:00am CALM 0 0 - - - - 10 - - 16.9 1017.8 0.0
01/05:30am CALM 0 0 - - - - 10 - - 17.1 1017.5 0.0
01/05:00am CALM 0 0 - - - - 10 - - 17.4 1017.2 0.0
01/04:30am CALM 0 0 - - - - 10 - - 17.9 1016.9 0.0
01/04:00am CALM 0 0 - - - - 10 Mostly clear - 18.2 1016.9 0.0
01/03:30am ESE 2 4 - - - - 10 Partly cloudy - 18.9 1016.9 0.0
01/03:00am CALM 0 0 - - - - 10 Mostly cloudy - 19.4 1016.8 0.0
01/02:30am CALM 0 0 - - - - 10 Cloudy - 19.5 1016.9 0.0
01/02:00am CALM 0 0 - - - - 10 Partly cloudy - 20.3 1017.1 0.0
01/01:30am CALM 0 0 - - - - 10 Partly cloudy - 21.1 1017.4 0.0
01/01:00am CALM 0 0 - - - - 10 Cloudy - 21.5 1017.9 0.0
01/12:30am CALM 0 0 - - - - 10 Cloudy - 22.1 1018.2 0.0
01/12:00am CALM 0 0 - - - - 10 Cloudy - 21.9 1018.5 0.0
 
Date/Time
CST
Wind Sea
Height
m
Swell Vis
km
Cloud Weather Temp
°C
Press
MSL
hPa
Rain since
9am
mm
Dir  Spd
kts
Gust
kts
Height
m
Period
s
Dir
31/11:30pm CALM 0 0 - - - - 10 Cloudy - 21.6 1018.6 0.0
31/11:00pm CALM 0 0 - - - - 10 Cloudy - 21.7 1018.7 0.0
31/10:30pm CALM 0 0 - - - - 10 Cloudy - 21.8 1018.7 0.0
31/10:00pm CALM 0 0 - - - - 10 Partly cloudy - 22.0 1018.8 0.0
31/09:30pm CALM 0 0 - - - - 10 Cloudy - 22.2 1018.8 0.0
31/09:00pm ESE 1 3 - - - - 10 Partly cloudy - 22.6 1018.7 0.0
31/08:30pm CALM 0 0 - - - - 10 Partly cloudy - 23.0 1018.5 0.0
31/08:00pm ESE 3 4 - - - - 10 Partly cloudy - 23.7 1018.2 0.0
31/07:30pm E 4 6 - - - - 10 Partly cloudy - 24.2 1017.9 0.0
31/07:00pm ESE 5 8 - - - - 10 Partly cloudy - 24.4 1017.6 0.0
31/06:30pm ESE 6 13 - - - - 10 - - 25.0 1017.4 0.0
31/06:00pm ESE 8 12 - - - - 10 - - 25.5 1017.0 0.0
31/05:30pm ESE 8 12 - - - - 10 - - 26.5 1016.6 0.0
31/05:00pm ESE 10 15 - - - - 10 Mostly clear - 27.5 1016.5 0.0
31/04:30pm ESE 11 19 - - - - 10 Mostly clear - 27.2 1016.4 0.0
31/04:00pm E 14 20 - - - - 10 - - 28.5 1016.1 0.0
31/03:30pm E 13 18 - - - - 10 Mostly clear - 28.7 1016.1 0.0
31/03:00pm E 12 20 - - - - 10 - - 29.3 1016.2 0.0
31/02:30pm E 15 26 - - - - 10 Mostly clear - 29.6 1016.6 0.0
31/02:00pm ESE 12 19 - - - - 10 Mostly clear - 29.1 1016.9 0.0
31/01:30pm E 17 23 - - - - 10 - - 29.5 1017.2 0.0
31/01:00pm ESE 13 21 - - - - 10 Mostly clear - 29.4 1017.5 0.0
31/12:30pm ESE 13 22 - - - - 10 Partly cloudy - 30.2 1017.8 0.0
31/12:00pm E 14 19 - - - - 10 - - 30.8 1018.2 0.0
31/11:30am ENE 16 23 - - - - 10 Mostly clear - 29.9 1018.5 0.0
31/11:00am E 14 23 - - - - 10 Partly cloudy - 29.3 1019.1 0.0
31/10:30am E 16 23 - - - - 10 Partly cloudy - 28.7 1019.4 0.0
31/10:00am E 14 22 - - - - 10 Partly cloudy - 27.1 1019.5 0.0
31/09:56am E 13 22 - - - - 10 Partly cloudy - 27.3 1019.4 0.0
31/09:45am E 16 25 - - - - 10 Partly cloudy - 28.4 1019.4 0.0
31/09:30am E 16 21 - - - - 10 Mostly clear - 28.3 1019.2 0.0
31/09:00am ESE 9 15 - - - - 10 Partly cloudy - 27.4 1018.8 0.0
31/08:30am ESE 5 8 - - - - 10 Mostly clear - 25.9 1018.7 0.0
31/08:00am SE 3 4 - - - - 10 - - 23.8 1018.6 0.0
31/07:30am SE 1 3 - - - - 10 - - 20.0 1018.4 0.0
31/07:00am SE 3 4 - - - - 10 - - 17.2 1018.1 0.0
31/06:30am SE 3 4 - - - - 10 Mostly clear - 16.5 1017.7 0.0
31/06:00am SE 1 4 - - - - 10 Mostly clear - 16.0 1017.4 0.0
31/05:30am SE 3 4 - - - - 10 Partly cloudy - 16.1 1017.0 0.0
31/05:00am SE 3 3 - - - - 10 Mostly clear - 16.0 1016.9 0.0
31/04:30am CALM 0 2 - - - - 10 - - 15.9 1016.9 0.0
31/04:00am SE 3 4 - - - - 10 Mostly clear - 16.1 1017.0 0.0
31/03:30am SE 3 4 - - - - 10 Partly cloudy - 16.4 1017.2 0.0
31/03:00am CALM 0 1 - - - - 10 - - 16.4 1017.4 0.0
31/02:30am SE 3 4 - - - - 10 - - 16.7 1017.5 0.0

Other formats

Comma delimited format used in spreadsheet applications
http://www.bom.gov.au/fwo/IDD60701/IDD60701.94153.axf

JavaScript Object Notation format (JSON) in row-major order
http://www.bom.gov.au/fwo/IDD60701/IDD60701.94153.json

Data quality

Most of these data are generated automatically and are frequently updated. Quality checks on data are not normally performed. It is possible for incorrect values to appear. Refer to information at About Latest Weather Observations and please check the disclaimer before using these data.